Obermehler-Schlotheim Airport EDCO

Flugplatz Daten

Name: Obermehler-Schlotheim Airport

Ident: EDCO

Lat: 51,26777649

Long: 10,63472176

Platzhöhe: 909 ft

IataCode:

City: Obermehler

Metar

2021/03/17 07:55
OAHR 170755Z VRB03KT 8000 NSC 22/02 Q1019 RMK A3011 BLU MEDCOP WX STATUS/ GREEN

Taf

Gewünschte Webcam nicht vorhanden? Dann fügen Sie eine hinzu. Sie wird dann so schnell wie möglich freigeschaltet
Url: Title: